Gabes, Tunisia

7:31 AM CET on August 04, 2015 (GMT +0100)
Gabes | | Change Station
CLOSE
Current Station
Airport
Location: Gabes,
Elevation: 394 ft
Nearby Weather Stations

Elev 394 ft 33.73 °N, 9.92 °E | Updated 31 minutes ago

Partly Cloudy
Partly Cloudy
82 °F
Feels Like 87 °F
N
14
Wind Variable Wind from South

Today
High -- | Low -- °F
--% Chance of Precip.
Yesterday
High -- | Low -- °F
Precip. -- in
5:33 AM 7:17 PM
Waning Gibbous, 80% visible
Pressure 29.95 in
Visibility 5.0 miles
Clouds Few 2000 ft
Heat Index 87 °F
Dew Point 72 °F
Humidity 70%
Rainfall 0.00 in
Snow Depth Not available.
UV 1 out of 12
Pollen Not available.
Air Quality Not available.
Flu Activity Not available.
METAR DTTG 040600Z 19012KT 8000 FEW020 28/22 Q1014 NOSIG

More Conditions Fewer Conditions

Pressure 29.95 in
Visibility 5.0 miles
Clouds Few 2000 ft
Heat Index 87 °F
Dew Point 72 °F
Humidity 70%
Rainfall 0.00 in
Snow Depth Not available.
UV 1 out of 12
Pollen Not available.
Air Quality Not available.
Flu Activity Not available.
METAR DTTG 040600Z 19012KT 8000 FEW020 28/22 Q1014 NOSIG

More Conditions Fewer Conditions

10-Day Weather Forecast

×

Almanac

Astronomy

Aug. 04, 2015 Rise Set
Actual Time
Civil Twilight
Nautical Twilight
Astronomical Twilight
Moon
Length of Visible Light
Length of Day
Tomorrow will be .
, % of the Moon is Illuminated

Today's Extremes

Country Highs Country Lows

Community

WunderPhotos

Upload Photos

1,843,876 photos uploaded!

WunderBlogs® & News

Nearby

Air Quality

  Air Quality AQ Index Pollutant
Not available.

Snow Depth

Station Depth Elevation

Earthquake Activity

City Distance Mag. Time & Date
Minimum magnitude displayed is 2.5.

Coastal Water Temperatures

Place Temperature

Stations

Nearby Weather Stations

Station Location Temp. Windchill Dew Point Humidity Wind Precip. Elev Updated Type